PWSweather.com
Personal Weather Stations
Station Observations
NORTHPOLE1
Tombur Subdivision, North Pole, AK 99705

Tombur SubdivisionNorth Pole, AK 99705

Lat: 64.774039, Lon: -147.284862

Elevation: 434

Station Type: Davis Vantage Pro 2

http://kl7ac.com

High Low Average
Temperature 33.6°F0.9°C 23.8°F-4.6°C 29.5°F-1.4°C
Dew Point 26.4°F-3.1°C 20.1°F-6.6°C 23.5°F-4.7°C
Winds 6.0 mph 9.7 kmh Calm Calm 2.0 mph NE3.2 kmh NE
Wind Gusts 16.0 mph25.7 kmh -- 6.0 mph9.7 kmh
Humidity 87% 72% 78%
Pressure 29.35 in993.9 mb 29.14 in986.8 mb -
Precipitation 0.00 in0.0 mm - -
Hour Temp Dew Point Humidity Winds Wind Gusts Pressure Precip Precip Rate Daily Precip Total
12:00 AM 27.8°F-2.3°C 21.8°F-5.7°C 78% 6.0 mph NE9.7 kmh NE 14.0 mph22.5 kmh 29.35 in993.9 mb 0.00 in0.0 mm 0.00 in/hr0.0 mm/hr 0.00 in0.0 mm
12:05 AM 27.8°F-2.3°C 21.8°F-5.7°C 78% 5.0 mph NE8.0 kmh NE 13.0 mph20.9 kmh 29.35 in993.9 mb 0.00 in0.0 mm 0.00 in/hr0.0 mm/hr 0.00 in0.0 mm
12:10 AM 27.9°F-2.3°C 21.9°F-5.6°C 78% 5.0 mph NE8.0 kmh NE 13.0 mph20.9 kmh 29.35 in993.9 mb 0.00 in0.0 mm 0.00 in/hr0.0 mm/hr 0.00 in0.0 mm
12:15 AM 27.9°F-2.3°C 21.9°F-5.6°C 78% 6.0 mph NE9.7 kmh NE 13.0 mph20.9 kmh 29.35 in993.9 mb 0.00 in0.0 mm 0.00 in/hr0.0 mm/hr 0.00 in0.0 mm
12:20 AM 28.0°F-2.2°C 22.0°F-5.6°C 78% 5.0 mph NE8.0 kmh NE 13.0 mph20.9 kmh 29.35 in993.9 mb 0.00 in0.0 mm 0.00 in/hr0.0 mm/hr 0.00 in0.0 mm
12:25 AM 28.0°F-2.2°C 22.0°F-5.6°C 78% 5.0 mph NE8.0 kmh NE 14.0 mph22.5 kmh 29.35 in993.9 mb 0.00 in0.0 mm 0.00 in/hr0.0 mm/hr 0.00 in0.0 mm
12:30 AM 28.0°F-2.2°C 22.0°F-5.6°C 78% 5.0 mph NE8.0 kmh NE 14.0 mph22.5 kmh 29.35 in993.9 mb 0.00 in0.0 mm 0.00 in/hr0.0 mm/hr 0.00 in0.0 mm
12:35 AM 28.0°F-2.2°C 22.0°F-5.6°C 78% 6.0 mph NE9.7 kmh NE 16.0 mph25.7 kmh 29.35 in993.9 mb 0.00 in0.0 mm 0.00 in/hr0.0 mm/hr 0.00 in0.0 mm
12:40 AM 28.1°F-2.2°C 22.1°F-5.5°C 78% 6.0 mph NE9.7 kmh NE 16.0 mph25.7 kmh 29.35 in993.9 mb 0.00 in0.0 mm 0.00 in/hr0.0 mm/hr 0.00 in0.0 mm
12:45 AM 28.1°F-2.2°C 22.1°F-5.5°C 78% 5.0 mph NE8.0 kmh NE 13.0 mph20.9 kmh 29.35 in993.9 mb 0.00 in0.0 mm 0.00 in/hr0.0 mm/hr 0.00 in0.0 mm
12:50 AM 28.1°F-2.2°C 22.1°F-5.5°C 78% 4.0 mph NE6.4 kmh NE 9.0 mph14.5 kmh 29.35 in993.9 mb 0.00 in0.0 mm 0.00 in/hr0.0 mm/hr 0.00 in0.0 mm
12:55 AM 28.0°F-2.2°C 22.0°F-5.6°C 78% 4.0 mph NE6.4 kmh NE 12.0 mph19.3 kmh 29.35 in993.9 mb 0.00 in0.0 mm 0.00 in/hr0.0 mm/hr 0.00 in0.0 mm
01:00 AM 28.1°F-2.2°C 22.1°F-5.5°C 78% 4.0 mph NE6.4 kmh NE 12.0 mph19.3 kmh 29.35 in993.9 mb 0.00 in0.0 mm 0.00 in/hr0.0 mm/hr 0.00 in0.0 mm
01:05 AM 28.0°F-2.2°C 22.0°F-5.6°C 78% 3.0 mph NE4.8 kmh NE 10.0 mph16.1 kmh 29.35 in993.9 mb 0.00 in0.0 mm 0.00 in/hr0.0 mm/hr 0.00 in0.0 mm
01:10 AM 28.0°F-2.2°C 22.0°F-5.6°C 78% 4.0 mph NE6.4 kmh NE 11.0 mph17.7 kmh 29.35 in993.9 mb 0.00 in0.0 mm 0.00 in/hr0.0 mm/hr 0.00 in0.0 mm
01:15 AM 28.1°F-2.2°C 22.1°F-5.5°C 78% 4.0 mph NE6.4 kmh NE 11.0 mph17.7 kmh 29.35 in993.9 mb 0.00 in0.0 mm 0.00 in/hr0.0 mm/hr 0.00 in0.0 mm
01:20 AM 28.1°F-2.2°C 22.4°F-5.3°C 79% 3.0 mph NE4.8 kmh NE 9.0 mph14.5 kmh 29.35 in993.9 mb 0.00 in0.0 mm 0.00 in/hr0.0 mm/hr 0.00 in0.0 mm
01:25 AM 28.1°F-2.2°C 22.4°F-5.3°C 79% 3.0 mph NE4.8 kmh NE 8.0 mph12.9 kmh 29.35 in993.9 mb 0.00 in0.0 mm 0.00 in/hr0.0 mm/hr 0.00 in0.0 mm
01:30 AM 28.0°F-2.2°C 22.3°F-5.4°C 79% 3.0 mph NE4.8 kmh NE 9.0 mph14.5 kmh 29.35 in993.9 mb 0.00 in0.0 mm 0.00 in/hr0.0 mm/hr 0.00 in0.0 mm
01:35 AM 28.0°F-2.2°C 22.3°F-5.4°C 79% 3.0 mph NE4.8 kmh NE 12.0 mph19.3 kmh 29.35 in993.9 mb 0.00 in0.0 mm 0.00 in/hr0.0 mm/hr 0.00 in0.0 mm
01:40 AM 28.0°F-2.2°C 22.3°F-5.4°C 79% 2.0 mph NE3.2 kmh NE 12.0 mph19.3 kmh 29.35 in993.9 mb 0.00 in0.0 mm 0.00 in/hr0.0 mm/hr 0.00 in0.0 mm
01:45 AM 28.0°F-2.2°C 22.3°F-5.4°C 79% 2.0 mph NE3.2 kmh NE 6.0 mph9.7 kmh 29.35 in993.9 mb 0.00 in0.0 mm 0.00 in/hr0.0 mm/hr 0.00 in0.0 mm
01:50 AM 27.9°F-2.3°C 22.2°F-5.4°C 79% 2.0 mph NE3.2 kmh NE 7.0 mph11.3 kmh 29.35 in993.9 mb 0.00 in0.0 mm 0.00 in/hr0.0 mm/hr 0.00 in0.0 mm
01:55 AM 27.9°F-2.3°C 22.2°F-5.4°C 79% 2.0 mph NE3.2 kmh NE 8.0 mph12.9 kmh 29.35 in993.9 mb 0.00 in0.0 mm 0.00 in/hr0.0 mm/hr 0.00 in0.0 mm
02:00 AM 27.9°F-2.3°C 22.2°F-5.4°C 79% 2.0 mph NE3.2 kmh NE 8.0 mph12.9 kmh 29.35 in993.9 mb 0.00 in0.0 mm 0.00 in/hr0.0 mm/hr 0.00 in0.0 mm
02:05 AM 27.9°F-2.3°C 22.2°F-5.4°C 79% 2.0 mph NE3.2 kmh NE 6.0 mph9.7 kmh 29.35 in993.9 mb 0.00 in0.0 mm 0.00 in/hr0.0 mm/hr 0.00 in0.0 mm
02:10 AM 27.9°F-2.3°C 22.2°F-5.4°C 79% 2.0 mph NE3.2 kmh NE 10.0 mph16.1 kmh 29.35 in993.9 mb 0.00 in0.0 mm 0.00 in/hr0.0 mm/hr 0.00 in0.0 mm
02:15 AM 27.8°F-2.3°C 22.1°F-5.5°C 79% 2.0 mph NE3.2 kmh NE 10.0 mph16.1 kmh 29.35 in993.9 mb 0.00 in0.0 mm 0.00 in/hr0.0 mm/hr 0.00 in0.0 mm
02:20 AM 27.9°F-2.3°C 22.2°F-5.4°C 79% 2.0 mph NE3.2 kmh NE 8.0 mph12.9 kmh 29.35 in993.9 mb 0.00 in0.0 mm 0.00 in/hr0.0 mm/hr 0.00 in0.0 mm
02:25 AM 27.9°F-2.3°C 22.2°F-5.4°C 79% 2.0 mph NE3.2 kmh NE 8.0 mph12.9 kmh 29.35 in993.9 mb 0.00 in0.0 mm 0.00 in/hr0.0 mm/hr 0.00 in0.0 mm
02:30 AM 27.9°F-2.3°C 22.2°F-5.4°C 79% 2.0 mph NE3.2 kmh NE 6.0 mph9.7 kmh 29.35 in993.9 mb 0.00 in0.0 mm 0.00 in/hr0.0 mm/hr 0.00 in0.0 mm
02:35 AM 27.9°F-2.3°C 22.2°F-5.4°C 79% 1.0 mph NE1.6 kmh NE 5.0 mph8.0 kmh 29.35 in993.9 mb 0.00 in0.0 mm 0.00 in/hr0.0 mm/hr 0.00 in0.0 mm
02:40 AM 27.9°F-2.3°C 22.2°F-5.4°C 79% 1.0 mph NNE1.6 kmh NNE 6.0 mph9.7 kmh 29.35 in993.9 mb 0.00 in0.0 mm 0.00 in/hr0.0 mm/hr 0.00 in0.0 mm
02:45 AM 27.9°F-2.3°C 22.2°F-5.4°C 79% 2.0 mph NNE3.2 kmh NNE 6.0 mph9.7 kmh 29.35 in993.9 mb 0.00 in0.0 mm 0.00 in/hr0.0 mm/hr 0.00 in0.0 mm
02:50 AM 27.8°F-2.3°C 22.1°F-5.5°C 79% 2.0 mph NE3.2 kmh NE 7.0 mph11.3 kmh 29.34 in993.6 mb 0.00 in0.0 mm 0.00 in/hr0.0 mm/hr 0.00 in0.0 mm
02:55 AM 27.8°F-2.3°C 22.1°F-5.5°C 79% 3.0 mph NE4.8 kmh NE 10.0 mph16.1 kmh 29.34 in993.6 mb 0.00 in0.0 mm 0.00 in/hr0.0 mm/hr 0.00 in0.0 mm
03:00 AM 27.8°F-2.3°C 22.1°F-5.5°C 79% 3.0 mph NE4.8 kmh NE 10.0 mph16.1 kmh 29.34 in993.6 mb 0.00 in0.0 mm 0.00 in/hr0.0 mm/hr 0.00 in0.0 mm
03:05 AM 27.9°F-2.3°C 22.2°F-5.4°C 79% 2.0 mph NE3.2 kmh NE 7.0 mph11.3 kmh 29.34 in993.6 mb 0.00 in0.0 mm 0.00 in/hr0.0 mm/hr 0.00 in0.0 mm
03:10 AM 27.9°F-2.3°C 22.2°F-5.4°C 79% 2.0 mph NE3.2 kmh NE 7.0 mph11.3 kmh 29.34 in993.6 mb 0.00 in0.0 mm 0.00 in/hr0.0 mm/hr 0.00 in0.0 mm
03:15 AM 27.9°F-2.3°C 22.2°F-5.4°C 79% 2.0 mph NE3.2 kmh NE 7.0 mph11.3 kmh 29.34 in993.6 mb 0.00 in0.0 mm 0.00 in/hr0.0 mm/hr 0.00 in0.0 mm
03:20 AM 27.9°F-2.3°C 22.2°F-5.4°C 79% 3.0 mph NE4.8 kmh NE 8.0 mph12.9 kmh 29.34 in993.6 mb 0.00 in0.0 mm 0.00 in/hr0.0 mm/hr 0.00 in0.0 mm
03:25 AM 27.9°F-2.3°C 22.2°F-5.4°C 79% 2.0 mph NE3.2 kmh NE 8.0 mph12.9 kmh 29.34 in993.6 mb 0.00 in0.0 mm 0.00 in/hr0.0 mm/hr 0.00 in0.0 mm
03:30 AM 27.9°F-2.3°C 22.2°F-5.4°C 79% 2.0 mph NE3.2 kmh NE 8.0 mph12.9 kmh 29.34 in993.6 mb 0.00 in0.0 mm 0.00 in/hr0.0 mm/hr 0.00 in0.0 mm
03:35 AM 28.0°F-2.2°C 22.3°F-5.4°C 79% 3.0 mph NE4.8 kmh NE 8.0 mph12.9 kmh 29.34 in993.6 mb 0.00 in0.0 mm 0.00 in/hr0.0 mm/hr 0.00 in0.0 mm
03:40 AM 28.0°F-2.2°C 22.3°F-5.4°C 79% 2.0 mph NE3.2 kmh NE 7.0 mph11.3 kmh 29.34 in993.6 mb 0.00 in0.0 mm 0.00 in/hr0.0 mm/hr 0.00 in0.0 mm
03:45 AM 28.0°F-2.2°C 22.3°F-5.4°C 79% 2.0 mph NE3.2 kmh NE 6.0 mph9.7 kmh 29.33 in993.2 mb 0.00 in0.0 mm 0.00 in/hr0.0 mm/hr 0.00 in0.0 mm
03:50 AM 28.0°F-2.2°C 22.0°F-5.6°C 78% 2.0 mph NE3.2 kmh NE 6.0 mph9.7 kmh 29.33 in993.2 mb 0.00 in0.0 mm 0.00 in/hr0.0 mm/hr 0.00 in0.0 mm
03:55 AM 28.0°F-2.2°C 22.3°F-5.4°C 79% 2.0 mph NE3.2 kmh NE 6.0 mph9.7 kmh 29.33 in993.2 mb 0.00 in0.0 mm 0.00 in/hr0.0 mm/hr 0.00 in0.0 mm
04:00 AM 28.1°F-2.2°C 22.1°F-5.5°C 78% 2.0 mph NE3.2 kmh NE 7.0 mph11.3 kmh 29.33 in993.2 mb 0.00 in0.0 mm 0.00 in/hr0.0 mm/hr 0.00 in0.0 mm
04:05 AM 28.1°F-2.2°C 22.4°F-5.3°C 79% 2.0 mph NE3.2 kmh NE 7.0 mph11.3 kmh 29.33 in993.2 mb 0.00 in0.0 mm 0.00 in/hr0.0 mm/hr 0.00 in0.0 mm
04:10 AM 28.1°F-2.2°C 22.1°F-5.5°C 78% 2.0 mph NE3.2 kmh NE 5.0 mph8.0 kmh 29.33 in993.2 mb 0.00 in0.0 mm 0.00 in/hr0.0 mm/hr 0.00 in0.0 mm
04:15 AM 28.1°F-2.2°C 22.1°F-5.5°C 78% 3.0 mph NE4.8 kmh NE 10.0 mph16.1 kmh 29.33 in993.2 mb 0.00 in0.0 mm 0.00 in/hr0.0 mm/hr 0.00 in0.0 mm
04:20 AM 28.1°F-2.2°C 22.1°F-5.5°C 78% 3.0 mph NE4.8 kmh NE 10.0 mph16.1 kmh 29.33 in993.2 mb 0.00 in0.0 mm 0.00 in/hr0.0 mm/hr 0.00 in0.0 mm
04:25 AM 28.1°F-2.2°C 22.1°F-5.5°C 78% 3.0 mph NE4.8 kmh NE 6.0 mph9.7 kmh 29.33 in993.2 mb 0.00 in0.0 mm 0.00 in/hr0.0 mm/hr 0.00 in0.0 mm
04:30 AM 28.2°F-2.1°C 22.2°F-5.4°C 78% 3.0 mph NE4.8 kmh NE 6.0 mph9.7 kmh 29.33 in993.2 mb 0.00 in0.0 mm 0.00 in/hr0.0 mm/hr 0.00 in0.0 mm
04:35 AM 28.2°F-2.1°C 22.2°F-5.4°C 78% 2.0 mph NE3.2 kmh NE 6.0 mph9.7 kmh 29.33 in993.2 mb 0.00 in0.0 mm 0.00 in/hr0.0 mm/hr 0.00 in0.0 mm
04:40 AM 28.2°F-2.1°C 22.2°F-5.4°C 78% 3.0 mph NE4.8 kmh NE 7.0 mph11.3 kmh 29.33 in993.2 mb 0.00 in0.0 mm 0.00 in/hr0.0 mm/hr 0.00 in0.0 mm
04:45 AM 28.2°F-2.1°C 22.2°F-5.4°C 78% 2.0 mph NE3.2 kmh NE 7.0 mph11.3 kmh 29.33 in993.2 mb 0.00 in0.0 mm 0.00 in/hr0.0 mm/hr 0.00 in0.0 mm
04:50 AM 28.2°F-2.1°C 22.2°F-5.4°C 78% 2.0 mph NE3.2 kmh NE 8.0 mph12.9 kmh 29.33 in993.2 mb 0.00 in0.0 mm 0.00 in/hr0.0 mm/hr 0.00 in0.0 mm
04:55 AM 28.2°F-2.1°C 22.2°F-5.4°C 78% 3.0 mph NE4.8 kmh NE 8.0 mph12.9 kmh 29.33 in993.2 mb 0.00 in0.0 mm 0.00 in/hr0.0 mm/hr 0.00 in0.0 mm
05:00 AM 28.2°F-2.1°C 22.2°F-5.4°C 78% 2.0 mph NE3.2 kmh NE 7.0 mph11.3 kmh 29.33 in993.2 mb 0.00 in0.0 mm 0.00 in/hr0.0 mm/hr 0.00 in0.0 mm
05:05 AM 28.1°F-2.2°C 22.1°F-5.5°C 78% 1.0 mph NE1.6 kmh NE 5.0 mph8.0 kmh 29.33 in993.2 mb 0.00 in0.0 mm 0.00 in/hr0.0 mm/hr 0.00 in0.0 mm
05:10 AM 28.2°F-2.1°C 22.2°F-5.4°C 78% 1.0 mph NE1.6 kmh NE 4.0 mph6.4 kmh 29.33 in993.2 mb 0.00 in0.0 mm 0.00 in/hr0.0 mm/hr 0.00 in0.0 mm
05:15 AM 28.1°F-2.2°C 22.4°F-5.3°C 79% Calm Calm 4.0 mph6.4 kmh 29.33 in993.2 mb 0.00 in0.0 mm 0.00 in/hr0.0 mm/hr 0.00 in0.0 mm
05:20 AM 28.1°F-2.2°C 22.7°F-5.2°C 80% Calm Calm 2.0 mph3.2 kmh 29.33 in993.2 mb 0.00 in0.0 mm 0.00 in/hr0.0 mm/hr 0.00 in0.0 mm
05:25 AM 28.0°F-2.2°C 22.6°F-5.2°C 80% Calm Calm 1.0 mph1.6 kmh 29.33 in993.2 mb 0.00 in0.0 mm 0.00 in/hr0.0 mm/hr 0.00 in0.0 mm
05:30 AM 27.8°F-2.3°C 22.1°F-5.5°C 79% Calm Calm 1.0 mph1.6 kmh 29.33 in993.2 mb 0.00 in0.0 mm 0.00 in/hr0.0 mm/hr 0.00 in0.0 mm
05:35 AM 27.7°F-2.4°C 22.3°F-5.4°C 80% Calm Calm 1.0 mph1.6 kmh 29.33 in993.2 mb 0.00 in0.0 mm 0.00 in/hr0.0 mm/hr 0.00 in0.0 mm
05:40 AM 27.5°F-2.5°C 22.1°F-5.5°C 80% Calm Calm 2.0 mph3.2 kmh 29.33 in993.2 mb 0.00 in0.0 mm 0.00 in/hr0.0 mm/hr 0.00 in0.0 mm
05:45 AM 27.3°F-2.6°C 22.2°F-5.4°C 81% Calm Calm 2.0 mph3.2 kmh 29.33 in993.2 mb 0.00 in0.0 mm 0.00 in/hr0.0 mm/hr 0.00 in0.0 mm
05:50 AM 27.2°F-2.7°C 22.1°F-5.5°C 81% Calm Calm 1.0 mph1.6 kmh 29.33 in993.2 mb 0.00 in0.0 mm 0.00 in/hr0.0 mm/hr 0.00 in0.0 mm
05:55 AM 27.0°F-2.8°C 21.9°F-5.6°C 81% Calm Calm 1.0 mph1.6 kmh 29.33 in993.2 mb 0.00 in0.0 mm 0.00 in/hr0.0 mm/hr 0.00 in0.0 mm
06:00 AM 26.9°F-2.8°C 22.1°F-5.5°C 82% Calm Calm 2.0 mph3.2 kmh 29.33 in993.2 mb 0.00 in0.0 mm 0.00 in/hr0.0 mm/hr 0.00 in0.0 mm
06:05 AM 26.7°F-2.9°C 21.7°F-5.7°C 81% Calm Calm 2.0 mph3.2 kmh 29.34 in993.6 mb 0.00 in0.0 mm 0.00 in/hr0.0 mm/hr 0.00 in0.0 mm
06:10 AM 26.5°F-3.1°C 21.5°F-5.8°C 81% Calm Calm 2.0 mph3.2 kmh 29.34 in993.6 mb 0.00 in0.0 mm 0.00 in/hr0.0 mm/hr 0.00 in0.0 mm
06:15 AM 26.3°F-3.2°C 21.6°F-5.8°C 82% Calm Calm 2.0 mph3.2 kmh 29.34 in993.6 mb 0.00 in0.0 mm 0.00 in/hr0.0 mm/hr 0.00 in0.0 mm
06:20 AM 26.1°F-3.3°C 21.4°F-5.9°C 82% Calm Calm 1.0 mph1.6 kmh 29.34 in993.6 mb 0.00 in0.0 mm 0.00 in/hr0.0 mm/hr 0.00 in0.0 mm
06:25 AM 25.8°F-3.4°C 21.1°F-6.1°C 82% Calm Calm 2.0 mph3.2 kmh 29.34 in993.6 mb 0.00 in0.0 mm 0.00 in/hr0.0 mm/hr 0.00 in0.0 mm
06:30 AM 25.6°F-3.6°C 21.2°F-6.0°C 83% Calm Calm 2.0 mph3.2 kmh 29.34 in993.6 mb 0.00 in0.0 mm 0.00 in/hr0.0 mm/hr 0.00 in0.0 mm
06:35 AM 25.4°F-3.7°C 21.0°F-6.1°C 83% Calm Calm 2.0 mph3.2 kmh 29.34 in993.6 mb 0.00 in0.0 mm 0.00 in/hr0.0 mm/hr 0.00 in0.0 mm
06:40 AM 25.2°F-3.8°C 20.8°F-6.2°C 83% Calm Calm 2.0 mph3.2 kmh 29.34 in993.6 mb 0.00 in0.0 mm 0.00 in/hr0.0 mm/hr 0.00 in0.0 mm
06:45 AM 25.0°F-3.9°C 20.8°F-6.2°C 84% Calm Calm 2.0 mph3.2 kmh 29.34 in993.6 mb 0.00 in0.0 mm 0.00 in/hr0.0 mm/hr 0.00 in0.0 mm
06:50 AM 24.8°F-4.0°C 20.7°F-6.3°C 84% Calm Calm 2.0 mph3.2 kmh 29.34 in993.6 mb 0.00 in0.0 mm 0.00 in/hr0.0 mm/hr 0.00 in0.0 mm
06:55 AM 24.7°F-4.1°C 20.6°F-6.3°C 84% Calm Calm -- 29.34 in993.6 mb 0.00 in0.0 mm 0.00 in/hr0.0 mm/hr 0.00 in0.0 mm
07:00 AM 24.4°F-4.2°C 20.3°F-6.5°C 85% Calm Calm 1.0 mph1.6 kmh 29.34 in993.6 mb 0.00 in0.0 mm 0.00 in/hr0.0 mm/hr 0.00 in0.0 mm
07:05 AM 24.3°F-4.3°C 20.4°F-6.4°C 85% Calm Calm 1.0 mph1.6 kmh 29.34 in993.6 mb 0.00 in0.0 mm 0.00 in/hr0.0 mm/hr 0.00 in0.0 mm
07:10 AM 24.1°F-4.4°C 20.2°F-6.6°C 85% Calm Calm 1.0 mph1.6 kmh 29.34 in993.6 mb 0.00 in0.0 mm 0.00 in/hr0.0 mm/hr 0.00 in0.0 mm
07:15 AM 24.0°F-4.4°C 20.1°F-6.6°C 85% Calm Calm -- 29.34 in993.6 mb 0.00 in0.0 mm 0.00 in/hr0.0 mm/hr 0.00 in0.0 mm
07:20 AM 24.0°F-4.4°C 20.1°F-6.6°C 85% Calm Calm -- 29.34 in993.6 mb 0.00 in0.0 mm 0.00 in/hr0.0 mm/hr 0.00 in0.0 mm
07:25 AM 23.9°F-4.5°C 20.3°F-6.5°C 86% Calm Calm -- 29.34 in993.6 mb 0.00 in0.0 mm 0.00 in/hr0.0 mm/hr 0.00 in0.0 mm
07:30 AM 23.9°F-4.5°C 20.3°F-6.5°C 86% Calm Calm -- 29.34 in993.6 mb 0.00 in0.0 mm 0.00 in/hr0.0 mm/hr 0.00 in0.0 mm
07:35 AM 23.9°F-4.5°C 20.3°F-6.5°C 86% Calm Calm -- 29.34 in993.6 mb 0.00 in0.0 mm 0.00 in/hr0.0 mm/hr 0.00 in0.0 mm
07:40 AM 23.9°F-4.5°C 20.3°F-6.5°C 86% Calm Calm 1.0 mph1.6 kmh 29.34 in993.6 mb 0.00 in0.0 mm 0.00 in/hr0.0 mm/hr 0.00 in0.0 mm
07:45 AM 23.9°F-4.5°C 20.3°F-6.5°C 86% Calm Calm 1.0 mph1.6 kmh 29.34 in993.6 mb 0.00 in0.0 mm 0.00 in/hr0.0 mm/hr 0.00 in0.0 mm
07:50 AM 23.9°F-4.5°C 20.3°F-6.5°C 86% Calm Calm 1.0 mph1.6 kmh 29.34 in993.6 mb 0.00 in0.0 mm 0.00 in/hr0.0 mm/hr 0.00 in0.0 mm
07:55 AM 23.8°F-4.6°C 20.2°F-6.6°C 86% Calm Calm 1.0 mph1.6 kmh 29.34 in993.6 mb 0.00 in0.0 mm 0.00 in/hr0.0 mm/hr 0.00 in0.0 mm
08:00 AM 23.8°F-4.6°C 20.2°F-6.6°C 86% Calm Calm -- 29.33 in993.2 mb 0.00 in0.0 mm 0.00 in/hr0.0 mm/hr 0.00 in0.0 mm
08:05 AM 23.8°F-4.6°C 20.2°F-6.6°C 86% Calm Calm -- 29.33 in993.2 mb 0.00 in0.0 mm 0.00 in/hr0.0 mm/hr 0.00 in0.0 mm
08:10 AM 23.8°F-4.6°C 20.2°F-6.6°C 86% Calm Calm -- 29.33 in993.2 mb 0.00 in0.0 mm 0.00 in/hr0.0 mm/hr 0.00 in0.0 mm
08:15 AM 23.8°F-4.6°C 20.5°F-6.4°C 87% Calm Calm -- 29.33 in993.2 mb 0.00 in0.0 mm 0.00 in/hr0.0 mm/hr 0.00 in0.0 mm
08:20 AM 23.9°F-4.5°C 20.3°F-6.5°C 86% Calm Calm -- 29.33 in993.2 mb 0.00 in0.0 mm 0.00 in/hr0.0 mm/hr 0.00 in0.0 mm
08:25 AM 23.9°F-4.5°C 20.6°F-6.3°C 87% Calm Calm -- 29.33 in993.2 mb 0.00 in0.0 mm 0.00 in/hr0.0 mm/hr 0.00 in0.0 mm
08:30 AM 23.9°F-4.5°C 20.6°F-6.3°C 87% Calm Calm -- 29.33 in993.2 mb 0.00 in0.0 mm 0.00 in/hr0.0 mm/hr 0.00 in0.0 mm
08:35 AM 23.9°F-4.5°C 20.6°F-6.3°C 87% Calm Calm -- 29.33 in993.2 mb 0.00 in0.0 mm 0.00 in/hr0.0 mm/hr 0.00 in0.0 mm
08:40 AM 23.9°F-4.5°C 20.6°F-6.3°C 87% Calm Calm -- 29.33 in993.2 mb 0.00 in0.0 mm 0.00 in/hr0.0 mm/hr 0.00 in0.0 mm
08:45 AM 24.0°F-4.4°C 20.7°F-6.3°C 87% Calm Calm -- 29.33 in993.2 mb 0.00 in0.0 mm 0.00 in/hr0.0 mm/hr 0.00 in0.0 mm
08:50 AM 24.0°F-4.4°C 20.7°F-6.3°C 87% Calm Calm -- 29.33 in993.2 mb 0.00 in0.0 mm 0.00 in/hr0.0 mm/hr 0.00 in0.0 mm
08:55 AM 24.1°F-4.4°C 20.5°F-6.4°C 86% Calm Calm -- 29.33 in993.2 mb 0.00 in0.0 mm 0.00 in/hr0.0 mm/hr 0.00 in0.0 mm
09:00 AM 24.2°F-4.3°C 20.9°F-6.2°C 87% Calm Calm -- 29.33 in993.2 mb 0.00 in0.0 mm 0.00 in/hr0.0 mm/hr 0.00 in0.0 mm
09:05 AM 24.3°F-4.3°C 21.0°F-6.1°C 87% Calm Calm -- 29.32 in992.9 mb 0.00 in0.0 mm 0.00 in/hr0.0 mm/hr 0.00 in0.0 mm
09:10 AM 24.4°F-4.2°C 21.1°F-6.1°C 87% Calm Calm -- 29.33 in993.2 mb 0.00 in0.0 mm 0.00 in/hr0.0 mm/hr 0.00 in0.0 mm
09:15 AM 24.5°F-4.2°C 20.9°F-6.2°C 86% Calm Calm -- 29.33 in993.2 mb 0.00 in0.0 mm 0.00 in/hr0.0 mm/hr 0.00 in0.0 mm
09:20 AM 24.6°F-4.1°C 21.0°F-6.1°C 86% Calm Calm -- 29.32 in992.9 mb 0.00 in0.0 mm 0.00 in/hr0.0 mm/hr 0.00 in0.0 mm
09:25 AM 24.8°F-4.0°C 21.2°F-6.0°C 86% Calm Calm -- 29.32 in992.9 mb 0.00 in0.0 mm 0.00 in/hr0.0 mm/hr 0.00 in0.0 mm
09:30 AM 24.9°F-3.9°C 21.3°F-5.9°C 86% Calm Calm -- 29.32 in992.9 mb 0.00 in0.0 mm 0.00 in/hr0.0 mm/hr 0.00 in0.0 mm
09:35 AM 25.1°F-3.8°C 21.5°F-5.8°C 86% Calm Calm -- 29.32 in992.9 mb 0.00 in0.0 mm 0.00 in/hr0.0 mm/hr 0.00 in0.0 mm
09:40 AM 25.3°F-3.7°C 21.7°F-5.7°C 86% Calm Calm -- 29.32 in992.9 mb 0.00 in0.0 mm 0.00 in/hr0.0 mm/hr 0.00 in0.0 mm
09:45 AM 25.4°F-3.7°C 21.8°F-5.7°C 86% Calm Calm -- 29.32 in992.9 mb 0.00 in0.0 mm 0.00 in/hr0.0 mm/hr 0.00 in0.0 mm
09:50 AM 25.6°F-3.6°C 22.0°F-5.6°C 86% Calm Calm -- 29.32 in992.9 mb 0.00 in0.0 mm 0.00 in/hr0.0 mm/hr 0.00 in0.0 mm
09:55 AM 25.8°F-3.4°C 22.2°F-5.4°C 86% Calm Calm 2.0 mph3.2 kmh 29.32 in992.9 mb 0.00 in0.0 mm 0.00 in/hr0.0 mm/hr 0.00 in0.0 mm
10:00 AM 26.0°F-3.3°C 22.4°F-5.3°C 86% Calm Calm 3.0 mph4.8 kmh 29.32 in992.9 mb 0.00 in0.0 mm 0.00 in/hr0.0 mm/hr 0.00 in0.0 mm
10:05 AM 26.2°F-3.2°C 22.6°F-5.2°C 86% 1.0 mph NE1.6 kmh NE 4.0 mph6.4 kmh 29.32 in992.9 mb 0.00 in0.0 mm 0.00 in/hr0.0 mm/hr 0.00 in0.0 mm
10:10 AM 26.4°F-3.1°C 22.8°F-5.1°C 86% 1.0 mph NE1.6 kmh NE 4.0 mph6.4 kmh 29.31 in992.6 mb 0.00 in0.0 mm 0.00 in/hr0.0 mm/hr 0.00 in0.0 mm
10:15 AM 26.6°F-3.0°C 23.0°F-5.0°C 86% 1.0 mph NE1.6 kmh NE 4.0 mph6.4 kmh 29.31 in992.6 mb 0.00 in0.0 mm 0.00 in/hr0.0 mm/hr 0.00 in0.0 mm
10:20 AM 26.9°F-2.8°C 23.3°F-4.8°C 86% 1.0 mph NE1.6 kmh NE 4.0 mph6.4 kmh 29.31 in992.6 mb 0.00 in0.0 mm 0.00 in/hr0.0 mm/hr 0.00 in0.0 mm
10:25 AM 27.2°F-2.7°C 23.6°F-4.7°C 86% 1.0 mph NE1.6 kmh NE 5.0 mph8.0 kmh 29.31 in992.6 mb 0.00 in0.0 mm 0.00 in/hr0.0 mm/hr 0.00 in0.0 mm
10:30 AM 27.5°F-2.5°C 23.9°F-4.5°C 86% 1.0 mph NE1.6 kmh NE 5.0 mph8.0 kmh 29.31 in992.6 mb 0.00 in0.0 mm 0.00 in/hr0.0 mm/hr 0.00 in0.0 mm
10:35 AM 27.8°F-2.3°C 23.9°F-4.5°C 85% 1.0 mph NE1.6 kmh NE 5.0 mph8.0 kmh 29.30 in992.2 mb 0.00 in0.0 mm 0.00 in/hr0.0 mm/hr 0.00 in0.0 mm
10:40 AM 28.2°F-2.1°C 24.0°F-4.4°C 84% 2.0 mph NE3.2 kmh NE 6.0 mph9.7 kmh 29.30 in992.2 mb 0.00 in0.0 mm 0.00 in/hr0.0 mm/hr 0.00 in0.0 mm
10:45 AM 28.7°F-1.8°C 23.9°F-4.5°C 82% 2.0 mph NE3.2 kmh NE 7.0 mph11.3 kmh 29.30 in992.2 mb 0.00 in0.0 mm 0.00 in/hr0.0 mm/hr 0.00 in0.0 mm
10:50 AM 29.2°F-1.6°C 24.1°F-4.4°C 81% 2.0 mph NE3.2 kmh NE 7.0 mph11.3 kmh 29.30 in992.2 mb 0.00 in0.0 mm 0.00 in/hr0.0 mm/hr 0.00 in0.0 mm
10:55 AM 29.6°F-1.3°C 24.2°F-4.3°C 80% 3.0 mph NE4.8 kmh NE 7.0 mph11.3 kmh 29.30 in992.2 mb 0.00 in0.0 mm 0.00 in/hr0.0 mm/hr 0.00 in0.0 mm
11:00 AM 30.0°F-1.1°C 24.3°F-4.3°C 79% 3.0 mph NE4.8 kmh NE 7.0 mph11.3 kmh 29.30 in992.2 mb 0.00 in0.0 mm 0.00 in/hr0.0 mm/hr 0.00 in0.0 mm
11:05 AM 30.2°F-1.0°C 24.5°F-4.2°C 79% 2.0 mph NE3.2 kmh NE 7.0 mph11.3 kmh 29.30 in992.2 mb 0.00 in0.0 mm 0.00 in/hr0.0 mm/hr 0.00 in0.0 mm
11:10 AM 30.5°F-0.8°C 24.5°F-4.2°C 78% 2.0 mph NE3.2 kmh NE 7.0 mph11.3 kmh 29.30 in992.2 mb 0.00 in0.0 mm 0.00 in/hr0.0 mm/hr 0.00 in0.0 mm
11:15 AM 30.8°F-0.7°C 24.7°F-4.1°C 78% 2.0 mph NE3.2 kmh NE 10.0 mph16.1 kmh 29.30 in992.2 mb 0.00 in0.0 mm 0.00 in/hr0.0 mm/hr 0.00 in0.0 mm
11:20 AM 31.0°F-0.6°C 24.6°F-4.1°C 77% 3.0 mph NE4.8 kmh NE 10.0 mph16.1 kmh 29.29 in991.9 mb 0.00 in0.0 mm 0.00 in/hr0.0 mm/hr 0.00 in0.0 mm
11:25 AM 31.3°F-0.4°C 24.9°F-3.9°C 77% 3.0 mph NE4.8 kmh NE 7.0 mph11.3 kmh 29.29 in991.9 mb 0.00 in0.0 mm 0.00 in/hr0.0 mm/hr 0.00 in0.0 mm
11:30 AM 31.5°F-0.3°C 24.8°F-4.0°C 76% 2.0 mph NE3.2 kmh NE 7.0 mph11.3 kmh 29.29 in991.9 mb 0.00 in0.0 mm 0.00 in/hr0.0 mm/hr 0.00 in0.0 mm
11:35 AM 31.7°F-0.2°C 24.7°F-4.1°C 75% 2.0 mph NE3.2 kmh NE 7.0 mph11.3 kmh 29.29 in991.9 mb 0.00 in0.0 mm 0.00 in/hr0.0 mm/hr 0.00 in0.0 mm
11:40 AM 31.9°F-0.1°C 24.9°F-3.9°C 75% 2.0 mph NE3.2 kmh NE 7.0 mph11.3 kmh 29.28 in991.5 mb 0.00 in0.0 mm 0.00 in/hr0.0 mm/hr 0.00 in0.0 mm
11:45 AM 32.0°F0.0°C 24.6°F-4.1°C 74% 3.0 mph NE4.8 kmh NE 10.0 mph16.1 kmh 29.28 in991.5 mb 0.00 in0.0 mm 0.00 in/hr0.0 mm/hr 0.00 in0.0 mm
11:50 AM 32.1°F0.1°C 25.1°F-3.8°C 75% 4.0 mph NE6.4 kmh NE 10.0 mph16.1 kmh 29.28 in991.5 mb 0.00 in0.0 mm 0.00 in/hr0.0 mm/hr 0.00 in0.0 mm
11:55 AM 32.1°F0.1°C 24.7°F-4.1°C 74% 4.0 mph NE6.4 kmh NE 10.0 mph16.1 kmh 29.28 in991.5 mb 0.00 in0.0 mm 0.00 in/hr0.0 mm/hr 0.00 in0.0 mm
12:00 PM 32.2°F0.1°C 24.5°F-4.2°C 73% 2.0 mph NE3.2 kmh NE 8.0 mph12.9 kmh 29.28 in991.5 mb 0.00 in0.0 mm 0.00 in/hr0.0 mm/hr 0.00 in0.0 mm
12:05 PM 32.3°F0.2°C 25.3°F-3.7°C 75% Calm Calm 3.0 mph4.8 kmh 29.28 in991.5 mb 0.00 in0.0 mm 0.00 in/hr0.0 mm/hr 0.00 in0.0 mm
12:10 PM 32.2°F0.1°C 25.2°F-3.8°C 75% Calm Calm 2.0 mph3.2 kmh 29.28 in991.5 mb 0.00 in0.0 mm 0.00 in/hr0.0 mm/hr 0.00 in0.0 mm
12:15 PM 32.0°F0.0°C 25.0°F-3.9°C 75% Calm Calm 3.0 mph4.8 kmh 29.28 in991.5 mb 0.00 in0.0 mm 0.00 in/hr0.0 mm/hr 0.00 in0.0 mm
12:20 PM 31.8°F-0.1°C 25.1°F-3.8°C 76% Calm Calm 3.0 mph4.8 kmh 29.27 in991.2 mb 0.00 in0.0 mm 0.00 in/hr0.0 mm/hr 0.00 in0.0 mm
12:25 PM 31.6°F-0.2°C 24.9°F-3.9°C 76% Calm Calm 1.0 mph1.6 kmh 29.27 in991.2 mb 0.00 in0.0 mm 0.00 in/hr0.0 mm/hr 0.00 in0.0 mm
12:30 PM 31.5°F-0.3°C 24.8°F-4.0°C 76% Calm Calm 1.0 mph1.6 kmh 29.27 in991.2 mb 0.00 in0.0 mm 0.00 in/hr0.0 mm/hr 0.00 in0.0 mm
12:35 PM 31.5°F-0.3°C 24.8°F-4.0°C 76% Calm Calm 2.0 mph3.2 kmh 29.27 in991.2 mb 0.00 in0.0 mm 0.00 in/hr0.0 mm/hr 0.00 in0.0 mm
12:40 PM 31.5°F-0.3°C 24.8°F-4.0°C 76% Calm Calm 2.0 mph3.2 kmh 29.27 in991.2 mb 0.00 in0.0 mm 0.00 in/hr0.0 mm/hr 0.00 in0.0 mm
12:45 PM 31.5°F-0.3°C 25.1°F-3.8°C 77% Calm Calm 1.0 mph1.6 kmh 29.27 in991.2 mb 0.00 in0.0 mm 0.00 in/hr0.0 mm/hr 0.00 in0.0 mm
12:50 PM 31.6°F-0.2°C 25.2°F-3.8°C 77% Calm Calm 2.0 mph3.2 kmh 29.27 in991.2 mb 0.00 in0.0 mm 0.00 in/hr0.0 mm/hr 0.00 in0.0 mm
12:55 PM 31.8°F-0.1°C 25.4°F-3.7°C 77% Calm Calm 2.0 mph3.2 kmh 29.27 in991.2 mb 0.00 in0.0 mm 0.00 in/hr0.0 mm/hr 0.00 in0.0 mm
01:00 PM 31.9°F-0.1°C 25.2°F-3.8°C 76% Calm Calm 1.0 mph1.6 kmh 29.27 in991.2 mb 0.00 in0.0 mm 0.00 in/hr0.0 mm/hr 0.00 in0.0 mm
01:05 PM 32.1°F0.1°C 25.4°F-3.7°C 76% Calm Calm 2.0 mph3.2 kmh 29.27 in991.2 mb 0.00 in0.0 mm 0.00 in/hr0.0 mm/hr 0.00 in0.0 mm
01:10 PM 32.2°F0.1°C 25.5°F-3.6°C 76% Calm Calm 3.0 mph4.8 kmh 29.27 in991.2 mb 0.00 in0.0 mm 0.00 in/hr0.0 mm/hr 0.00 in0.0 mm
01:15 PM 32.2°F0.1°C 25.5°F-3.6°C 76% Calm Calm 3.0 mph4.8 kmh 29.27 in991.2 mb 0.00 in0.0 mm 0.00 in/hr0.0 mm/hr 0.00 in0.0 mm
01:20 PM 32.2°F0.1°C 25.2°F-3.8°C 75% Calm Calm 2.0 mph3.2 kmh 29.26 in990.9 mb 0.00 in0.0 mm 0.00 in/hr0.0 mm/hr 0.00 in0.0 mm
01:25 PM 32.1°F0.1°C 25.1°F-3.8°C 75% Calm Calm 2.0 mph3.2 kmh 29.26 in990.9 mb 0.00 in0.0 mm 0.00 in/hr0.0 mm/hr 0.00 in0.0 mm
01:30 PM 32.1°F0.1°C 25.4°F-3.7°C 76% Calm Calm 3.0 mph4.8 kmh 29.26 in990.9 mb 0.00 in0.0 mm 0.00 in/hr0.0 mm/hr 0.00 in0.0 mm
01:35 PM 32.1°F0.1°C 25.4°F-3.7°C 76% 1.0 mph E1.6 kmh E 3.0 mph4.8 kmh 29.26 in990.9 mb 0.00 in0.0 mm 0.00 in/hr0.0 mm/hr 0.00 in0.0 mm
01:40 PM 32.1°F0.1°C 25.4°F-3.7°C 76% 1.0 mph ESE1.6 kmh ESE 3.0 mph4.8 kmh 29.26 in990.9 mb 0.00 in0.0 mm 0.00 in/hr0.0 mm/hr 0.00 in0.0 mm
01:45 PM 32.0°F0.0°C 25.3°F-3.7°C 76% 1.0 mph SE1.6 kmh SE 3.0 mph4.8 kmh 29.26 in990.9 mb 0.00 in0.0 mm 0.00 in/hr0.0 mm/hr 0.00 in0.0 mm
01:50 PM 32.0°F0.0°C 25.3°F-3.7°C 76% 1.0 mph SE1.6 kmh SE 3.0 mph4.8 kmh 29.26 in990.9 mb 0.00 in0.0 mm 0.00 in/hr0.0 mm/hr 0.00 in0.0 mm
01:55 PM 32.0°F0.0°C 25.6°F-3.6°C 77% Calm Calm 3.0 mph4.8 kmh 29.26 in990.9 mb 0.00 in0.0 mm 0.00 in/hr0.0 mm/hr 0.00 in0.0 mm
02:00 PM 32.1°F0.1°C 26.0°F-3.3°C 78% Calm Calm 2.0 mph3.2 kmh 29.26 in990.9 mb 0.00 in0.0 mm 0.00 in/hr0.0 mm/hr 0.00 in0.0 mm
02:05 PM 32.3°F0.2°C 25.9°F-3.4°C 77% Calm Calm 1.0 mph1.6 kmh 29.26 in990.9 mb 0.00 in0.0 mm 0.00 in/hr0.0 mm/hr 0.00 in0.0 mm
02:10 PM 32.5°F0.3°C 25.8°F-3.4°C 76% Calm Calm 2.0 mph3.2 kmh 29.26 in990.9 mb 0.00 in0.0 mm 0.00 in/hr0.0 mm/hr 0.00 in0.0 mm
02:15 PM 32.7°F0.4°C 26.0°F-3.3°C 76% Calm Calm 3.0 mph4.8 kmh 29.26 in990.9 mb 0.00 in0.0 mm 0.00 in/hr0.0 mm/hr 0.00 in0.0 mm
02:20 PM 32.7°F0.4°C 26.0°F-3.3°C 76% Calm Calm 3.0 mph4.8 kmh 29.26 in990.9 mb 0.00 in0.0 mm 0.00 in/hr0.0 mm/hr 0.00 in0.0 mm
02:25 PM 32.8°F0.4°C 26.4°F-3.1°C 77% Calm Calm 3.0 mph4.8 kmh 29.26 in990.9 mb 0.00 in0.0 mm 0.00 in/hr0.0 mm/hr 0.00 in0.0 mm
02:30 PM 32.7°F0.4°C 25.6°F-3.6°C 75% 1.0 mph ENE1.6 kmh ENE 4.0 mph6.4 kmh 29.26 in990.9 mb 0.00 in0.0 mm 0.00 in/hr0.0 mm/hr 0.00 in0.0 mm
02:35 PM 32.7°F0.4°C 26.0°F-3.3°C 76% 1.0 mph ENE1.6 kmh ENE 4.0 mph6.4 kmh 29.25 in990.5 mb 0.00 in0.0 mm 0.00 in/hr0.0 mm/hr 0.00 in0.0 mm
02:40 PM 32.8°F0.4°C 26.1°F-3.3°C 76% 1.0 mph ENE1.6 kmh ENE 6.0 mph9.7 kmh 29.25 in990.5 mb 0.00 in0.0 mm 0.00 in/hr0.0 mm/hr 0.00 in0.0 mm
02:45 PM 32.8°F0.4°C 26.1°F-3.3°C 76% 2.0 mph ENE3.2 kmh ENE 6.0 mph9.7 kmh 29.25 in990.5 mb 0.00 in0.0 mm 0.00 in/hr0.0 mm/hr 0.00 in0.0 mm
02:50 PM 32.9°F0.5°C 25.8°F-3.4°C 75% 2.0 mph ENE3.2 kmh ENE 5.0 mph8.0 kmh 29.25 in990.5 mb 0.00 in0.0 mm 0.00 in/hr0.0 mm/hr 0.00 in0.0 mm
02:55 PM 33.1°F0.6°C 25.7°F-3.5°C 74% 2.0 mph ENE3.2 kmh ENE 9.0 mph14.5 kmh 29.25 in990.5 mb 0.00 in0.0 mm 0.00 in/hr0.0 mm/hr 0.00 in0.0 mm
03:00 PM 33.3°F0.7°C 25.6°F-3.6°C 73% 3.0 mph NE4.8 kmh NE 9.0 mph14.5 kmh 29.25 in990.5 mb 0.00 in0.0 mm 0.00 in/hr0.0 mm/hr 0.00 in0.0 mm
03:05 PM 33.4°F0.8°C 25.7°F-3.5°C 73% 3.0 mph NE4.8 kmh NE 7.0 mph11.3 kmh 29.25 in990.5 mb 0.00 in0.0 mm 0.00 in/hr0.0 mm/hr 0.00 in0.0 mm
03:10 PM 33.5°F0.8°C 25.4°F-3.7°C 72% 2.0 mph NE3.2 kmh NE 6.0 mph9.7 kmh 29.24 in990.2 mb 0.00 in0.0 mm 0.00 in/hr0.0 mm/hr 0.00 in0.0 mm
03:15 PM 33.6°F0.9°C 25.9°F-3.4°C 73% 3.0 mph NE4.8 kmh NE 8.0 mph12.9 kmh 29.24 in990.2 mb 0.00 in0.0 mm 0.00 in/hr0.0 mm/hr 0.00 in0.0 mm
03:20 PM 33.6°F0.9°C 25.9°F-3.4°C 73% 2.0 mph ENE3.2 kmh ENE 8.0 mph12.9 kmh 29.24 in990.2 mb 0.00 in0.0 mm 0.00 in/hr0.0 mm/hr 0.00 in0.0 mm
03:25 PM 33.5°F0.8°C 25.8°F-3.4°C 73% 1.0 mph ENE1.6 kmh ENE 5.0 mph8.0 kmh 29.24 in990.2 mb 0.00 in0.0 mm 0.00 in/hr0.0 mm/hr 0.00 in0.0 mm
03:30 PM 33.5°F0.8°C 25.8°F-3.4°C 73% 2.0 mph NE3.2 kmh NE 7.0 mph11.3 kmh 29.24 in990.2 mb 0.00 in0.0 mm 0.00 in/hr0.0 mm/hr 0.00 in0.0 mm
03:35 PM 33.4°F0.8°C 25.3°F-3.7°C 72% 3.0 mph NE4.8 kmh NE 11.0 mph17.7 kmh 29.24 in990.2 mb 0.00 in0.0 mm 0.00 in/hr0.0 mm/hr 0.00 in0.0 mm
03:40 PM 33.4°F0.8°C 25.3°F-3.7°C 72% 4.0 mph NE6.4 kmh NE 11.0 mph17.7 kmh 29.24 in990.2 mb 0.00 in0.0 mm 0.00 in/hr0.0 mm/hr 0.00 in0.0 mm
03:45 PM 33.3°F0.7°C 25.2°F-3.8°C 72% 4.0 mph ENE6.4 kmh ENE 10.0 mph16.1 kmh 29.23 in989.8 mb 0.00 in0.0 mm 0.00 in/hr0.0 mm/hr 0.00 in0.0 mm
03:50 PM 33.3°F0.7°C 25.6°F-3.6°C 73% 4.0 mph ENE6.4 kmh ENE 8.0 mph12.9 kmh 29.23 in989.8 mb 0.00 in0.0 mm 0.00 in/hr0.0 mm/hr 0.00 in0.0 mm
03:55 PM 33.2°F0.7°C 25.5°F-3.6°C 73% 3.0 mph ENE4.8 kmh ENE 9.0 mph14.5 kmh 29.23 in989.8 mb 0.00 in0.0 mm 0.00 in/hr0.0 mm/hr 0.00 in0.0 mm
04:00 PM 33.2°F0.7°C 25.5°F-3.6°C 73% 4.0 mph ENE6.4 kmh ENE 9.0 mph14.5 kmh 29.23 in989.8 mb 0.00 in0.0 mm 0.00 in/hr0.0 mm/hr 0.00 in0.0 mm
04:05 PM 33.1°F0.6°C 25.1°F-3.8°C 72% 4.0 mph ENE6.4 kmh ENE 7.0 mph11.3 kmh 29.23 in989.8 mb 0.00 in0.0 mm 0.00 in/hr0.0 mm/hr 0.00 in0.0 mm
04:10 PM 33.1°F0.6°C 25.4°F-3.7°C 73% 3.0 mph ENE4.8 kmh ENE 7.0 mph11.3 kmh 29.23 in989.8 mb 0.00 in0.0 mm 0.00 in/hr0.0 mm/hr 0.00 in0.0 mm
04:15 PM 33.0°F0.6°C 25.3°F-3.7°C 73% 2.0 mph ENE3.2 kmh ENE 6.0 mph9.7 kmh 29.23 in989.8 mb 0.00 in0.0 mm 0.00 in/hr0.0 mm/hr 0.00 in0.0 mm
04:20 PM 32.9°F0.5°C 25.2°F-3.8°C 73% 1.0 mph ENE1.6 kmh ENE 6.0 mph9.7 kmh 29.23 in989.8 mb 0.00 in0.0 mm 0.00 in/hr0.0 mm/hr 0.00 in0.0 mm
04:25 PM 32.8°F0.4°C 25.1°F-3.8°C 73% 2.0 mph ENE3.2 kmh ENE 6.0 mph9.7 kmh 29.23 in989.8 mb 0.00 in0.0 mm 0.00 in/hr0.0 mm/hr 0.00 in0.0 mm
04:30 PM 32.8°F0.4°C 25.1°F-3.8°C 73% 2.0 mph ENE3.2 kmh ENE 9.0 mph14.5 kmh 29.23 in989.8 mb 0.00 in0.0 mm 0.00 in/hr0.0 mm/hr 0.00 in0.0 mm
04:35 PM 32.7°F0.4°C 25.0°F-3.9°C 73% 3.0 mph ENE4.8 kmh ENE 9.0 mph14.5 kmh 29.23 in989.8 mb 0.00 in0.0 mm 0.00 in/hr0.0 mm/hr 0.00 in0.0 mm
04:40 PM 32.6°F0.3°C 24.9°F-3.9°C 73% 3.0 mph NE4.8 kmh NE 9.0 mph14.5 kmh 29.22 in989.5 mb 0.00 in0.0 mm 0.00 in/hr0.0 mm/hr 0.00 in0.0 mm
04:45 PM 32.6°F0.3°C 25.2°F-3.8°C 74% 2.0 mph NE3.2 kmh NE 6.0 mph9.7 kmh 29.22 in989.5 mb 0.00 in0.0 mm 0.00 in/hr0.0 mm/hr 0.00 in0.0 mm
04:50 PM 32.5°F0.3°C 25.1°F-3.8°C 74% 2.0 mph NE3.2 kmh NE 6.0 mph9.7 kmh 29.22 in989.5 mb 0.00 in0.0 mm 0.00 in/hr0.0 mm/hr 0.00 in0.0 mm
04:55 PM 32.4°F0.2°C 25.0°F-3.9°C 74% 3.0 mph NE4.8 kmh NE 9.0 mph14.5 kmh 29.22 in989.5 mb 0.00 in0.0 mm 0.00 in/hr0.0 mm/hr 0.00 in0.0 mm
05:00 PM 32.4°F0.2°C 25.0°F-3.9°C 74% 3.0 mph NE4.8 kmh NE 9.0 mph14.5 kmh 29.22 in989.5 mb 0.00 in0.0 mm 0.00 in/hr0.0 mm/hr 0.00 in0.0 mm
05:05 PM 32.3°F0.2°C 25.3°F-3.7°C 75% 1.0 mph NE1.6 kmh NE 4.0 mph6.4 kmh 29.22 in989.5 mb 0.00 in0.0 mm 0.00 in/hr0.0 mm/hr 0.00 in0.0 mm
05:10 PM 32.2°F0.1°C 24.8°F-4.0°C 74% 1.0 mph NE1.6 kmh NE 4.0 mph6.4 kmh 29.22 in989.5 mb 0.00 in0.0 mm 0.00 in/hr0.0 mm/hr 0.00 in0.0 mm
05:15 PM 32.2°F0.1°C 24.8°F-4.0°C 74% 1.0 mph NE1.6 kmh NE 4.0 mph6.4 kmh 29.21 in989.2 mb 0.00 in0.0 mm 0.00 in/hr0.0 mm/hr 0.00 in0.0 mm
05:20 PM 32.1°F0.1°C 25.1°F-3.8°C 75% 1.0 mph NE1.6 kmh NE 5.0 mph8.0 kmh 29.21 in989.2 mb 0.00 in0.0 mm 0.00 in/hr0.0 mm/hr 0.00 in0.0 mm
05:25 PM 32.1°F0.1°C 25.1°F-3.8°C 75% 2.0 mph NE3.2 kmh NE 6.0 mph9.7 kmh 29.21 in989.2 mb 0.00 in0.0 mm 0.00 in/hr0.0 mm/hr 0.00 in0.0 mm
05:30 PM 32.0°F0.0°C 24.6°F-4.1°C 74% 2.0 mph NE3.2 kmh NE 7.0 mph11.3 kmh 29.21 in989.2 mb 0.00 in0.0 mm 0.00 in/hr0.0 mm/hr 0.00 in0.0 mm
05:35 PM 32.0°F0.0°C 25.0°F-3.9°C 75% 2.0 mph NE3.2 kmh NE 7.0 mph11.3 kmh 29.21 in989.2 mb 0.00 in0.0 mm 0.00 in/hr0.0 mm/hr 0.00 in0.0 mm
05:40 PM 32.0°F0.0°C 25.0°F-3.9°C 75% 2.0 mph NE3.2 kmh NE 7.0 mph11.3 kmh 29.21 in989.2 mb 0.00 in0.0 mm 0.00 in/hr0.0 mm/hr 0.00 in0.0 mm
05:45 PM 32.0°F0.0°C 25.0°F-3.9°C 75% 2.0 mph NE3.2 kmh NE 6.0 mph9.7 kmh 29.21 in989.2 mb 0.00 in0.0 mm 0.00 in/hr0.0 mm/hr 0.00 in0.0 mm
05:50 PM 31.9°F-0.1°C 24.9°F-3.9°C 75% 2.0 mph NE3.2 kmh NE 7.0 mph11.3 kmh 29.21 in989.2 mb 0.00 in0.0 mm 0.00 in/hr0.0 mm/hr 0.00 in0.0 mm
05:55 PM 31.9°F-0.1°C 24.9°F-3.9°C 75% 2.0 mph NE3.2 kmh NE 9.0 mph14.5 kmh 29.21 in989.2 mb 0.00 in0.0 mm 0.00 in/hr0.0 mm/hr 0.00 in0.0 mm
06:00 PM 31.9°F-0.1°C 24.9°F-3.9°C 75% 3.0 mph NE4.8 kmh NE 9.0 mph14.5 kmh 29.21 in989.2 mb 0.00 in0.0 mm 0.00 in/hr0.0 mm/hr 0.00 in0.0 mm
06:05 PM 31.9°F-0.1°C 24.9°F-3.9°C 75% 4.0 mph NE6.4 kmh NE 9.0 mph14.5 kmh 29.20 in988.8 mb 0.00 in0.0 mm 0.00 in/hr0.0 mm/hr 0.00 in0.0 mm
06:10 PM 31.8°F-0.1°C 24.8°F-4.0°C 75% 3.0 mph NE4.8 kmh NE 9.0 mph14.5 kmh 29.20 in988.8 mb 0.00 in0.0 mm 0.00 in/hr0.0 mm/hr 0.00 in0.0 mm
06:15 PM 31.7°F-0.2°C 24.7°F-4.1°C 75% 3.0 mph ENE4.8 kmh ENE 7.0 mph11.3 kmh 29.20 in988.8 mb 0.00 in0.0 mm 0.00 in/hr0.0 mm/hr 0.00 in0.0 mm
06:20 PM 31.7°F-0.2°C 24.7°F-4.1°C 75% 3.0 mph NE4.8 kmh NE 12.0 mph19.3 kmh 29.20 in988.8 mb 0.00 in0.0 mm 0.00 in/hr0.0 mm/hr 0.00 in0.0 mm
06:25 PM 31.7°F-0.2°C 24.4°F-4.2°C 74% 4.0 mph NE6.4 kmh NE 12.0 mph19.3 kmh 29.20 in988.8 mb 0.00 in0.0 mm 0.00 in/hr0.0 mm/hr 0.00 in0.0 mm
06:30 PM 31.8°F-0.1°C 24.8°F-4.0°C 75% 4.0 mph NE6.4 kmh NE 10.0 mph16.1 kmh 29.20 in988.8 mb 0.00 in0.0 mm 0.00 in/hr0.0 mm/hr 0.00 in0.0 mm
06:35 PM 31.8°F-0.1°C 24.8°F-4.0°C 75% 3.0 mph NE4.8 kmh NE 10.0 mph16.1 kmh 29.19 in988.5 mb 0.00 in0.0 mm 0.00 in/hr0.0 mm/hr 0.00 in0.0 mm
06:40 PM 31.7°F-0.2°C 24.4°F-4.2°C 74% 4.0 mph NE6.4 kmh NE 10.0 mph16.1 kmh 29.19 in988.5 mb 0.00 in0.0 mm 0.00 in/hr0.0 mm/hr 0.00 in0.0 mm
06:45 PM 31.7°F-0.2°C 24.4°F-4.2°C 74% 4.0 mph NE6.4 kmh NE 11.0 mph17.7 kmh 29.19 in988.5 mb 0.00 in0.0 mm 0.00 in/hr0.0 mm/hr 0.00 in0.0 mm
06:50 PM 31.7°F-0.2°C 24.4°F-4.2°C 74% 4.0 mph NE6.4 kmh NE 11.0 mph17.7 kmh 29.19 in988.5 mb 0.00 in0.0 mm 0.00 in/hr0.0 mm/hr 0.00 in0.0 mm
06:55 PM 31.7°F-0.2°C 24.7°F-4.1°C 75% 3.0 mph NE4.8 kmh NE 10.0 mph16.1 kmh 29.19 in988.5 mb 0.00 in0.0 mm 0.00 in/hr0.0 mm/hr 0.00 in0.0 mm
07:00 PM 31.7°F-0.2°C 24.4°F-4.2°C 74% 3.0 mph NE4.8 kmh NE 10.0 mph16.1 kmh 29.19 in988.5 mb 0.00 in0.0 mm 0.00 in/hr0.0 mm/hr 0.00 in0.0 mm
07:05 PM 31.7°F-0.2°C 24.7°F-4.1°C 75% 3.0 mph NE4.8 kmh NE 9.0 mph14.5 kmh 29.19 in988.5 mb 0.00 in0.0 mm 0.00 in/hr0.0 mm/hr 0.00 in0.0 mm
07:10 PM 31.6°F-0.2°C 24.3°F-4.3°C 74% 3.0 mph NE4.8 kmh NE 9.0 mph14.5 kmh 29.18 in988.1 mb 0.00 in0.0 mm 0.00 in/hr0.0 mm/hr 0.00 in0.0 mm
07:15 PM 31.6°F-0.2°C 24.6°F-4.1°C 75% 3.0 mph NE4.8 kmh NE 10.0 mph16.1 kmh 29.18 in988.1 mb 0.00 in0.0 mm 0.00 in/hr0.0 mm/hr 0.00 in0.0 mm
07:20 PM 31.6°F-0.2°C 24.6°F-4.1°C 75% 3.0 mph NE4.8 kmh NE 10.0 mph16.1 kmh 29.18 in988.1 mb 0.00 in0.0 mm 0.00 in/hr0.0 mm/hr 0.00 in0.0 mm
07:25 PM 31.6°F-0.2°C 24.6°F-4.1°C 75% 3.0 mph NE4.8 kmh NE 10.0 mph16.1 kmh 29.18 in988.1 mb 0.00 in0.0 mm 0.00 in/hr0.0 mm/hr 0.00 in0.0 mm
07:30 PM 31.6°F-0.2°C 24.6°F-4.1°C 75% 3.0 mph NE4.8 kmh NE 10.0 mph16.1 kmh 29.18 in988.1 mb 0.00 in0.0 mm 0.00 in/hr0.0 mm/hr 0.00 in0.0 mm
07:35 PM 31.5°F-0.3°C 24.2°F-4.3°C 74% 3.0 mph NE4.8 kmh NE 9.0 mph14.5 kmh 29.18 in988.1 mb 0.00 in0.0 mm 0.00 in/hr0.0 mm/hr 0.00 in0.0 mm
07:40 PM 31.5°F-0.3°C 24.5°F-4.2°C 75% 4.0 mph NE6.4 kmh NE 10.0 mph16.1 kmh 29.18 in988.1 mb 0.00 in0.0 mm 0.00 in/hr0.0 mm/hr 0.00 in0.0 mm
07:45 PM 31.5°F-0.3°C 24.2°F-4.3°C 74% 4.0 mph NE6.4 kmh NE 10.0 mph16.1 kmh 29.18 in988.1 mb 0.00 in0.0 mm 0.00 in/hr0.0 mm/hr 0.00 in0.0 mm
07:50 PM 31.5°F-0.3°C 24.2°F-4.3°C 74% 4.0 mph NE6.4 kmh NE 10.0 mph16.1 kmh 29.18 in988.1 mb 0.00 in0.0 mm 0.00 in/hr0.0 mm/hr 0.00 in0.0 mm
07:55 PM 31.5°F-0.3°C 24.2°F-4.3°C 74% 4.0 mph NE6.4 kmh NE 10.0 mph16.1 kmh 29.18 in988.1 mb 0.00 in0.0 mm 0.00 in/hr0.0 mm/hr 0.00 in0.0 mm
08:00 PM 31.5°F-0.3°C 24.2°F-4.3°C 74% 4.0 mph NE6.4 kmh NE 9.0 mph14.5 kmh 29.18 in988.1 mb 0.00 in0.0 mm 0.00 in/hr0.0 mm/hr 0.00 in0.0 mm
08:05 PM 31.6°F-0.2°C 24.3°F-4.3°C 74% 4.0 mph NE6.4 kmh NE 9.0 mph14.5 kmh 29.18 in988.1 mb 0.00 in0.0 mm 0.00 in/hr0.0 mm/hr 0.00 in0.0 mm
08:10 PM 31.6°F-0.2°C 24.6°F-4.1°C 75% 3.0 mph NE4.8 kmh NE 9.0 mph14.5 kmh 29.18 in988.1 mb 0.00 in0.0 mm 0.00 in/hr0.0 mm/hr 0.00 in0.0 mm
08:15 PM 31.5°F-0.3°C 24.2°F-4.3°C 74% 3.0 mph NE4.8 kmh NE 8.0 mph12.9 kmh 29.18 in988.1 mb 0.00 in0.0 mm 0.00 in/hr0.0 mm/hr 0.00 in0.0 mm
08:20 PM 31.5°F-0.3°C 24.2°F-4.3°C 74% 4.0 mph NE6.4 kmh NE 9.0 mph14.5 kmh 29.17 in987.8 mb 0.00 in0.0 mm 0.00 in/hr0.0 mm/hr 0.00 in0.0 mm
08:25 PM 31.5°F-0.3°C 24.5°F-4.2°C 75% 4.0 mph NE6.4 kmh NE 9.0 mph14.5 kmh 29.17 in987.8 mb 0.00 in0.0 mm 0.00 in/hr0.0 mm/hr 0.00 in0.0 mm
08:30 PM 31.5°F-0.3°C 24.5°F-4.2°C 75% 3.0 mph NE4.8 kmh NE 7.0 mph11.3 kmh 29.17 in987.8 mb 0.00 in0.0 mm 0.00 in/hr0.0 mm/hr 0.00 in0.0 mm
08:35 PM 31.4°F-0.3°C 24.4°F-4.2°C 75% 3.0 mph NE4.8 kmh NE 7.0 mph11.3 kmh 29.17 in987.8 mb 0.00 in0.0 mm 0.00 in/hr0.0 mm/hr 0.00 in0.0 mm
08:40 PM 31.4°F-0.3°C 24.4°F-4.2°C 75% 3.0 mph NE4.8 kmh NE 9.0 mph14.5 kmh 29.17 in987.8 mb 0.00 in0.0 mm 0.00 in/hr0.0 mm/hr 0.00 in0.0 mm
08:45 PM 31.4°F-0.3°C 24.7°F-4.1°C 76% 3.0 mph NE4.8 kmh NE 10.0 mph16.1 kmh 29.17 in987.8 mb 0.00 in0.0 mm 0.00 in/hr0.0 mm/hr 0.00 in0.0 mm
08:50 PM 31.4°F-0.3°C 24.4°F-4.2°C 75% 3.0 mph NE4.8 kmh NE 10.0 mph16.1 kmh 29.17 in987.8 mb 0.00 in0.0 mm 0.00 in/hr0.0 mm/hr 0.00 in0.0 mm
08:55 PM 31.3°F-0.4°C 24.6°F-4.1°C 76% 3.0 mph NE4.8 kmh NE 10.0 mph16.1 kmh 29.17 in987.8 mb 0.00 in0.0 mm 0.00 in/hr0.0 mm/hr 0.00 in0.0 mm
09:00 PM 31.3°F-0.4°C 24.3°F-4.3°C 75% 2.0 mph NE3.2 kmh NE 6.0 mph9.7 kmh 29.17 in987.8 mb 0.00 in0.0 mm 0.00 in/hr0.0 mm/hr 0.00 in0.0 mm
09:05 PM 31.3°F-0.4°C 24.6°F-4.1°C 76% 2.0 mph NE3.2 kmh NE 6.0 mph9.7 kmh 29.16 in987.5 mb 0.00 in0.0 mm 0.00 in/hr0.0 mm/hr 0.00 in0.0 mm
09:10 PM 31.3°F-0.4°C 24.6°F-4.1°C 76% 2.0 mph NE3.2 kmh NE 6.0 mph9.7 kmh 29.16 in987.5 mb 0.00 in0.0 mm 0.00 in/hr0.0 mm/hr 0.00 in0.0 mm
09:15 PM 31.3°F-0.4°C 24.6°F-4.1°C 76% 2.0 mph NE3.2 kmh NE 5.0 mph8.0 kmh 29.16 in987.5 mb 0.00 in0.0 mm 0.00 in/hr0.0 mm/hr 0.00 in0.0 mm
09:20 PM 31.2°F-0.4°C 24.5°F-4.2°C 76% 2.0 mph NE3.2 kmh NE 6.0 mph9.7 kmh 29.16 in987.5 mb 0.00 in0.0 mm 0.00 in/hr0.0 mm/hr 0.00 in0.0 mm
09:25 PM 31.2°F-0.4°C 24.5°F-4.2°C 76% 2.0 mph NE3.2 kmh NE 6.0 mph9.7 kmh 29.16 in987.5 mb 0.00 in0.0 mm 0.00 in/hr0.0 mm/hr 0.00 in0.0 mm
09:30 PM 31.2°F-0.4°C 24.5°F-4.2°C 76% 3.0 mph NE4.8 kmh NE 8.0 mph12.9 kmh 29.16 in987.5 mb 0.00 in0.0 mm 0.00 in/hr0.0 mm/hr 0.00 in0.0 mm
09:35 PM 31.2°F-0.4°C 24.5°F-4.2°C 76% 3.0 mph NE4.8 kmh NE 8.0 mph12.9 kmh 29.16 in987.5 mb 0.00 in0.0 mm 0.00 in/hr0.0 mm/hr 0.00 in0.0 mm
09:40 PM 31.3°F-0.4°C 24.6°F-4.1°C 76% 2.0 mph NE3.2 kmh NE 7.0 mph11.3 kmh 29.16 in987.5 mb 0.00 in0.0 mm 0.00 in/hr0.0 mm/hr 0.00 in0.0 mm
09:45 PM 31.3°F-0.4°C 24.9°F-3.9°C 77% 2.0 mph NE3.2 kmh NE 5.0 mph8.0 kmh 29.16 in987.5 mb 0.00 in0.0 mm 0.00 in/hr0.0 mm/hr 0.00 in0.0 mm
09:50 PM 31.3°F-0.4°C 24.6°F-4.1°C 76% 2.0 mph NE3.2 kmh NE 4.0 mph6.4 kmh 29.16 in987.5 mb 0.00 in0.0 mm 0.00 in/hr0.0 mm/hr 0.00 in0.0 mm
09:55 PM 31.2°F-0.4°C 24.5°F-4.2°C 76% 2.0 mph NE3.2 kmh NE 5.0 mph8.0 kmh 29.17 in987.8 mb 0.00 in0.0 mm 0.00 in/hr0.0 mm/hr 0.00 in0.0 mm
10:00 PM 31.2°F-0.4°C 24.8°F-4.0°C 77% 3.0 mph NE4.8 kmh NE 6.0 mph9.7 kmh 29.16 in987.5 mb 0.00 in0.0 mm 0.00 in/hr0.0 mm/hr 0.00 in0.0 mm
10:05 PM 31.2°F-0.4°C 24.8°F-4.0°C 77% 3.0 mph NE4.8 kmh NE 6.0 mph9.7 kmh 29.16 in987.5 mb 0.00 in0.0 mm 0.00 in/hr0.0 mm/hr 0.00 in0.0 mm
10:10 PM 31.2°F-0.4°C 24.8°F-4.0°C 77% 2.0 mph NE3.2 kmh NE 7.0 mph11.3 kmh 29.16 in987.5 mb 0.00 in0.0 mm 0.00 in/hr0.0 mm/hr 0.00 in0.0 mm
10:15 PM 31.2°F-0.4°C 24.8°F-4.0°C 77% 3.0 mph NE4.8 kmh NE 7.0 mph11.3 kmh 29.16 in987.5 mb 0.00 in0.0 mm 0.00 in/hr0.0 mm/hr 0.00 in0.0 mm
10:20 PM 31.2°F-0.4°C 24.5°F-4.2°C 76% 3.0 mph NE4.8 kmh NE 7.0 mph11.3 kmh 29.16 in987.5 mb 0.00 in0.0 mm 0.00 in/hr0.0 mm/hr 0.00 in0.0 mm
10:25 PM 31.3°F-0.4°C 24.9°F-3.9°C 77% 2.0 mph NE3.2 kmh NE 7.0 mph11.3 kmh 29.16 in987.5 mb 0.00 in0.0 mm 0.00 in/hr0.0 mm/hr 0.00 in0.0 mm
10:30 PM 31.3°F-0.4°C 24.9°F-3.9°C 77% 2.0 mph NE3.2 kmh NE 6.0 mph9.7 kmh 29.16 in987.5 mb 0.00 in0.0 mm 0.00 in/hr0.0 mm/hr 0.00 in0.0 mm
10:35 PM 31.3°F-0.4°C 24.9°F-3.9°C 77% 2.0 mph NE3.2 kmh NE 6.0 mph9.7 kmh 29.16 in987.5 mb 0.00 in0.0 mm 0.00 in/hr0.0 mm/hr 0.00 in0.0 mm
10:40 PM 31.3°F-0.4°C 24.9°F-3.9°C 77% 2.0 mph NE3.2 kmh NE 6.0 mph9.7 kmh 29.16 in987.5 mb 0.00 in0.0 mm 0.00 in/hr0.0 mm/hr 0.00 in0.0 mm
10:45 PM 31.3°F-0.4°C 24.9°F-3.9°C 77% 2.0 mph NE3.2 kmh NE 6.0 mph9.7 kmh 29.16 in987.5 mb 0.00 in0.0 mm 0.00 in/hr0.0 mm/hr 0.00 in0.0 mm
10:50 PM 31.2°F-0.4°C 24.8°F-4.0°C 77% 3.0 mph NE4.8 kmh NE 10.0 mph16.1 kmh 29.16 in987.5 mb 0.00 in0.0 mm 0.00 in/hr0.0 mm/hr 0.00 in0.0 mm
10:55 PM 31.2°F-0.4°C 24.8°F-4.0°C 77% 3.0 mph NE4.8 kmh NE 10.0 mph16.1 kmh 29.16 in987.5 mb 0.00 in0.0 mm 0.00 in/hr0.0 mm/hr 0.00 in0.0 mm
11:00 PM 31.2°F-0.4°C 24.8°F-4.0°C 77% 3.0 mph NE4.8 kmh NE 7.0 mph11.3 kmh 29.16 in987.5 mb 0.00 in0.0 mm 0.00 in/hr0.0 mm/hr 0.00 in0.0 mm
11:05 PM 31.3°F-0.4°C 24.9°F-3.9°C 77% 3.0 mph NE4.8 kmh NE 7.0 mph11.3 kmh 29.15 in987.1 mb 0.00 in0.0 mm 0.00 in/hr0.0 mm/hr 0.00 in0.0 mm
11:10 PM 31.3°F-0.4°C 24.6°F-4.1°C 76% 4.0 mph NE6.4 kmh NE 12.0 mph19.3 kmh 29.15 in987.1 mb 0.00 in0.0 mm 0.00 in/hr0.0 mm/hr 0.00 in0.0 mm
11:15 PM 31.4°F-0.3°C 24.7°F-4.1°C 76% 4.0 mph NE6.4 kmh NE 12.0 mph19.3 kmh 29.15 in987.1 mb 0.00 in0.0 mm 0.00 in/hr0.0 mm/hr 0.00 in0.0 mm
11:20 PM 31.5°F-0.3°C 24.8°F-4.0°C 76% 4.0 mph NE6.4 kmh NE 12.0 mph19.3 kmh 29.15 in987.1 mb 0.00 in0.0 mm 0.00 in/hr0.0 mm/hr 0.00 in0.0 mm
11:25 PM 31.5°F-0.3°C 24.8°F-4.0°C 76% 4.0 mph NE6.4 kmh NE 12.0 mph19.3 kmh 29.15 in987.1 mb 0.00 in0.0 mm 0.00 in/hr0.0 mm/hr 0.00 in0.0 mm
11:30 PM 31.5°F-0.3°C 24.8°F-4.0°C 76% 4.0 mph NE6.4 kmh NE 12.0 mph19.3 kmh 29.15 in987.1 mb 0.00 in0.0 mm 0.00 in/hr0.0 mm/hr 0.00 in0.0 mm
11:35 PM 31.5°F-0.3°C 24.8°F-4.0°C 76% 3.0 mph NE4.8 kmh NE 8.0 mph12.9 kmh 29.15 in987.1 mb 0.00 in0.0 mm 0.00 in/hr0.0 mm/hr 0.00 in0.0 mm
11:40 PM 31.5°F-0.3°C 24.8°F-4.0°C 76% 3.0 mph NE4.8 kmh NE 12.0 mph19.3 kmh 29.14 in986.8 mb 0.00 in0.0 mm 0.00 in/hr0.0 mm/hr 0.00 in0.0 mm
11:45 PM 31.5°F-0.3°C 24.8°F-4.0°C 76% 4.0 mph NE6.4 kmh NE 12.0 mph19.3 kmh 29.14 in986.8 mb 0.00 in0.0 mm 0.00 in/hr0.0 mm/hr 0.00 in0.0 mm
11:50 PM 31.6°F-0.2°C 24.9°F-3.9°C 76% 4.0 mph NE6.4 kmh NE 12.0 mph19.3 kmh 29.14 in986.8 mb 0.00 in0.0 mm 0.00 in/hr0.0 mm/hr 0.00 in0.0 mm
11:55 PM 31.6°F-0.2°C 24.9°F-3.9°C 76% 3.0 mph NE4.8 kmh NE 10.0 mph16.1 kmh 29.14 in986.8 mb 0.00 in0.0 mm 0.00 in/hr0.0 mm/hr 0.00 in0.0 mm